Time;durP1;ratioP1;P1;durP2;ratioP2;P2;SDS_P1;SDS_P2;PMS_P1;PMS_P2;Temp;Humidity;BMP_temperature;BMP_pressure;BME280_temperature;BME280_humidity;BME280_pressure;Samples;Min_cycle;Max_cycle;Signal;HPM_P1;HPM_P2
2023/09/23 00:01:40;;;;;;;;;;;;;;;;;;5051688;28;19932;-65
2023/09/23 00:04:07;;;;;;;;;;;;;;;;;;5052426;28;19932;-65
2023/09/23 00:06:34;;;;;;;;;;;;;;;;;;5052407;28;19925;-65
2023/09/23 00:09:04;;;;;;;;;;;;;;;;;;5051717;28;19924;-66
2023/09/23 00:11:31;;;;;;;;;;;;;;;;;;5034043;28;19993;-65
2023/09/23 00:13:58;;;;;;;;;;;;;;;;;;5050155;28;19933;-65
2023/09/23 00:16:25;;;;;;;;;;;;;;;;;;5057303;28;19965;-65
2023/09/23 00:18:54;;;;;;;;;;;;;;;;;;5052067;28;20363;-66
2023/09/23 00:21:21;;;;;;;;;;;;;;;;;;5052698;28;19931;-65
2023/09/23 00:23:48;;;;;;;;;;;;;;;;;;5050994;28;19960;-66
2023/09/23 00:26:20;;;;;;;;;;;;;;;;;;5051728;28;19925;-65
2023/09/23 00:28:47;;;;;;;;;;;;;;;;;;5052486;28;20410;-66
2023/09/23 00:31:15;;;;;;;;;;;;;;;;;;5051324;28;19929;-65
2023/09/23 00:33:42;;;;;;;;;;;;;;;;;;5052284;28;20011;-66
2023/09/23 00:36:09;;;;;;;;;;;;;;;;;;5048500;28;19967;-66
2023/09/23 00:38:36;;;;;;;;;;;;;;;;;;5043479;28;19960;-65
2023/09/23 00:41:04;;;;;;;;;;;;;;;;;;5042183;28;20361;-65
2023/09/23 00:43:32;;;;;;;;;;;;;;;;;;5052239;28;19967;-66
2023/09/23 00:45:59;;;;;;;;;;;;;;;;;;5042778;28;19961;-65
2023/09/23 00:48:26;;;;;;;;;;;;;;;;;;5052097;28;20881;-65
2023/09/23 00:50:54;;;;;;;;;;;;;;;;;;5051414;28;20358;-65
2023/09/23 00:53:21;;;;;;;;;;;;;;;;;;5051937;28;19925;-65
2023/09/23 00:55:52;;;;;;;;;;;;;;;;;;5050418;28;20391;-65
2023/09/23 00:58:21;;;;;;;;;;;;;;;;;;5053722;28;19925;-65
2023/09/23 01:00:49;;;;;;;;;;;;;;;;;;5051283;28;19924;-65
2023/09/23 01:03:16;;;;;;;;;;;;;;;;;;5055381;28;19951;-65
2023/09/23 01:05:44;;;;;;;;;;;;;;;;;;5055024;28;19987;-65
2023/09/23 01:08:25;;;;;;;;;;;;;;;;;;5044654;28;20352;-65
2023/09/23 01:10:52;;;;;;;;;;;;;;;;;;5055758;28;20287;-65
2023/09/23 01:13:23;;;;;;;;;;;;;;;;;;5049108;28;19925;-66
2023/09/23 01:15:51;;;;;;;;;;;;;;;;;;5049599;28;19925;-66
2023/09/23 01:18:18;;;;;;;;;;;;;;;;;;5055567;28;19967;-66
2023/09/23 01:20:48;;;;;;;;;;;;;;;;;;5055138;28;19932;-65
2023/09/23 01:23:15;;;;;;;;;;;;;;;;;;5055098;28;19925;-65
2023/09/23 01:25:42;;;;;;;;;;;;;;;;;;5054901;28;19931;-65
2023/09/23 01:28:11;;;;;;;;;;;;;;;;;;5054724;28;20011;-66
2023/09/23 01:30:38;;;;;;;;;;;;;;;;;;5054523;28;19932;-66
2023/09/23 01:33:07;;;;;;;;;;;;;;;;;;5054849;28;19931;-65
2023/09/23 01:35:34;;;;;;;;;;;;;;;;;;5051511;28;19924;-66
2023/09/23 01:38:04;;;;;;;;;;;;;;;;;;5054616;28;19925;-65
2023/09/23 01:40:31;;;;;;;;;;;;;;;;;;5055549;28;20386;-65
2023/09/23 01:42:58;;;;;;;;;;;;;;;;;;5055200;28;19935;-66
2023/09/23 01:45:25;;;;;;;;;;;;;;;;;;5054147;28;19925;-66
2023/09/23 01:47:52;;;;;;;;;;;;;;;;;;5036751;28;20446;-65
2023/09/23 01:50:20;;;;;;;;;;;;;;;;;;5039710;28;19925;-65
2023/09/23 01:52:48;;;;;;;;;;;;;;;;;;5053850;28;19925;-67
2023/09/23 01:55:16;;;;;;;;;;;;;;;;;;5048873;28;19924;-66
2023/09/23 01:57:43;;;;;;;;;;;;;;;;;;5053467;28;19924;-66
2023/09/23 02:00:14;;;;;;;;;;;;;;;;;;5054580;28;19970;-66
2023/09/23 02:02:42;;;;;;;;;;;;;;;;;;5053722;28;19932;-65
2023/09/23 02:05:09;;;;;;;;;;;;;;;;;;5053664;28;19940;-65
2023/09/23 02:07:36;;;;;;;;;;;;;;;;;;5054487;28;20433;-66
2023/09/23 02:10:03;;;;;;;;;;;;;;;;;;5038346;28;19925;-65
2023/09/23 02:12:32;;;;;;;;;;;;;;;;;;5050129;28;19925;-65
2023/09/23 02:14:59;;;;;;;;;;;;;;;;;;5051545;28;19939;-65
2023/09/23 02:17:26;;;;;;;;;;;;;;;;;;5058375;28;19987;-66
2023/09/23 02:19:53;;;;;;;;;;;;;;;;;;5054408;28;19925;-67
2023/09/23 02:22:20;;;;;;;;;;;;;;;;;;5054209;28;19972;-65
2023/09/23 02:24:47;;;;;;;;;;;;;;;;;;5044508;28;19925;-65
2023/09/23 02:27:15;;;;;;;;;;;;;;;;;;5052329;28;19925;-65
2023/09/23 02:29:42;;;;;;;;;;;;;;;;;;5054097;28;19932;-65
2023/09/23 02:32:09;;;;;;;;;;;;;;;;;;5051109;28;19940;-66
2023/09/23 02:34:38;;;;;;;;;;;;;;;;;;5052608;28;20333;-65
2023/09/23 02:37:05;;;;;;;;;;;;;;;;;;5051316;28;20300;-65
2023/09/23 02:39:32;;;;;;;;;;;;;;;;;;5050360;28;19980;-65
2023/09/23 02:42:00;;;;;;;;;;;;;;;;;;5048677;28;19972;-65
2023/09/23 02:44:29;;;;;;;;;;;;;;;;;;5046178;28;19978;-65
2023/09/23 02:46:56;;;;;;;;;;;;;;;;;;5050328;28;19925;-65
2023/09/23 02:49:23;;;;;;;;;;;;;;;;;;5050365;28;19982;-65
2023/09/23 02:51:50;;;;;;;;;;;;;;;;;;5051664;28;20384;-66
2023/09/23 02:54:18;;;;;;;;;;;;;;;;;;5053181;28;19929;-65
2023/09/23 02:56:47;;;;;;;;;;;;;;;;;;5050472;28;19978;-66
2023/09/23 02:59:15;;;;;;;;;;;;;;;;;;5051865;28;19925;-65
2023/09/23 03:01:45;;;;;;;;;;;;;;;;;;5053072;28;20304;-65
2023/09/23 03:04:17;;;;;;;;;;;;;;;;;;5052906;28;20007;-66
2023/09/23 03:06:49;;;;;;;;;;;;;;;;;;5051185;28;20346;-66
2023/09/23 03:09:16;;;;;;;;;;;;;;;;;;5036388;28;19925;-66
2023/09/23 03:11:49;;;;;;;;;;;;;;;;;;5045394;28;19929;-65
2023/09/23 03:14:18;;;;;;;;;;;;;;;;;;5053949;28;19929;-66
2023/09/23 03:16:49;;;;;;;;;;;;;;;;;;5064020;28;20380;-66
2023/09/23 03:19:22;;;;;;;;;;;;;;;;;;5057178;28;20395;-66
2023/09/23 03:21:50;;;;;;;;;;;;;;;;;;5052627;28;19996;-66
2023/09/23 03:24:17;;;;;;;;;;;;;;;;;;5051643;28;20299;-66
2023/09/23 03:26:46;;;;;;;;;;;;;;;;;;5045392;28;19929;-66
2023/09/23 03:29:13;;;;;;;;;;;;;;;;;;5052773;28;19924;-67
2023/09/23 03:31:40;;;;;;;;;;;;;;;;;;5051030;28;19970;-66
2023/09/23 03:34:07;;;;;;;;;;;;;;;;;;5052001;28;19924;-65
2023/09/23 03:36:34;;;;;;;;;;;;;;;;;;5052758;28;19925;-65
2023/09/23 03:39:02;;;;;;;;;;;;;;;;;;5048431;28;19978;-65
2023/09/23 03:41:29;;;;;;;;;;;;;;;;;;5051730;28;19978;-65
2023/09/23 03:43:56;;;;;;;;;;;;;;;;;;5051489;28;19932;-65
2023/09/23 03:46:23;;;;;;;;;;;;;;;;;;5051662;28;19986;-65
2023/09/23 03:48:50;;;;;;;;;;;;;;;;;;5053146;28;19987;-65
2023/09/23 03:51:17;;;;;;;;;;;;;;;;;;5051992;28;20023;-67
2023/09/23 03:53:44;;;;;;;;;;;;;;;;;;5047877;28;19936;-65
2023/09/23 03:56:11;;;;;;;;;;;;;;;;;;5050909;28;19925;-66
2023/09/23 03:58:39;;;;;;;;;;;;;;;;;;5048947;28;20002;-66
2023/09/23 04:01:10;;;;;;;;;;;;;;;;;;5049469;28;20015;-66
2023/09/23 04:03:37;;;;;;;;;;;;;;;;;;5047471;28;19956;-66
2023/09/23 04:06:05;;;;;;;;;;;;;;;;;;5051488;28;19925;-66
2023/09/23 04:08:32;;;;;;;;;;;;;;;;;;5047485;28;20285;-66
2023/09/23 04:10:59;;;;;;;;;;;;;;;;;;5049392;28;19928;-66
2023/09/23 04:13:26;;;;;;;;;;;;;;;;;;5048998;28;20012;-66
2023/09/23 04:15:53;;;;;;;;;;;;;;;;;;5043824;28;19931;-65
2023/09/23 04:18:20;;;;;;;;;;;;;;;;;;5052986;28;19924;-66
2023/09/23 04:20:47;;;;;;;;;;;;;;;;;;5037553;28;19951;-65
2023/09/23 04:23:14;;;;;;;;;;;;;;;;;;5064683;28;20312;-65
2023/09/23 04:25:42;;;;;;;;;;;;;;;;;;5038886;28;19952;-66
2023/09/23 04:28:09;;;;;;;;;;;;;;;;;;5041097;28;19979;-66
2023/09/23 04:30:36;;;;;;;;;;;;;;;;;;5044022;28;19986;-65
2023/09/23 04:33:03;;;;;;;;;;;;;;;;;;5045894;28;19928;-65
2023/09/23 04:35:30;;;;;;;;;;;;;;;;;;5051654;28;19975;-65
2023/09/23 04:37:58;;;;;;;;;;;;;;;;;;5046390;28;19968;-65
2023/09/23 04:40:25;;;;;;;;;;;;;;;;;;5047416;28;20269;-66
2023/09/23 04:42:52;;;;;;;;;;;;;;;;;;5038326;28;19978;-65
2023/09/23 04:45:20;;;;;;;;;;;;;;;;;;5048090;28;19928;-66
2023/09/23 04:47:50;;;;;;;;;;;;;;;;;;5051423;28;20019;-66
2023/09/23 04:50:17;;;;;;;;;;;;;;;;;;5051448;28;19928;-65
2023/09/23 04:52:45;;;;;;;;;;;;;;;;;;5051650;28;20268;-65
2023/09/23 04:55:12;;;;;;;;;;;;;;;;;;5051594;28;19929;-65
2023/09/23 04:57:39;;;;;;;;;;;;;;;;;;5047877;28;19936;-65
2023/09/23 05:00:09;;;;;;;;;;;;;;;;;;5049850;28;19971;-65
2023/09/23 05:02:37;;;;;;;;;;;;;;;;;;5051009;28;19932;-65
2023/09/23 05:05:04;;;;;;;;;;;;;;;;;;5048174;28;20020;-66
2023/09/23 05:07:31;;;;;;;;;;;;;;;;;;5048312;28;20457;-65
2023/09/23 05:09:58;;;;;;;;;;;;;;;;;;5052100;28;19925;-65
2023/09/23 05:12:25;;;;;;;;;;;;;;;;;;5050971;28;20447;-65
2023/09/23 05:14:53;;;;;;;;;;;;;;;;;;5050994;28;20019;-66
2023/09/23 05:17:21;;;;;;;;;;;;;;;;;;5057005;28;20080;-65
2023/09/23 05:19:48;;;;;;;;;;;;;;;;;;5048542;28;19932;-65
2023/09/23 05:22:16;;;;;;;;;;;;;;;;;;5044603;28;20284;-65
2023/09/23 05:24:47;;;;;;;;;;;;;;;;;;5046046;28;19925;-65
2023/09/23 05:27:14;;;;;;;;;;;;;;;;;;5066749;28;20023;-65
2023/09/23 05:29:42;;;;;;;;;;;;;;;;;;5041866;28;19947;-66
2023/09/23 05:32:09;;;;;;;;;;;;;;;;;;5049922;28;19925;-65
2023/09/23 05:34:39;;;;;;;;;;;;;;;;;;5049913;28;20407;-66
2023/09/23 05:37:06;;;;;;;;;;;;;;;;;;5051479;28;19931;-65
2023/09/23 05:39:34;;;;;;;;;;;;;;;;;;5040697;28;19979;-65
2023/09/23 05:42:03;;;;;;;;;;;;;;;;;;5051471;28;20314;-65
2023/09/23 05:44:30;;;;;;;;;;;;;;;;;;5052049;28;19925;-65
2023/09/23 05:46:57;;;;;;;;;;;;;;;;;;5054417;28;20241;-65
2023/09/23 05:49:24;;;;;;;;;;;;;;;;;;5054094;28;19932;-66
2023/09/23 05:51:54;;;;;;;;;;;;;;;;;;5054517;28;21594;-65
2023/09/23 05:54:22;;;;;;;;;;;;;;;;;;5049518;28;19990;-65
2023/09/23 05:56:49;;;;;;;;;;;;;;;;;;5051748;28;19932;-65
2023/09/23 05:59:16;;;;;;;;;;;;;;;;;;5050584;28;19978;-65
2023/09/23 06:01:43;;;;;;;;;;;;;;;;;;5048876;28;20372;-65
2023/09/23 06:04:10;;;;;;;;;;;;;;;;;;5054381;28;19925;-65
2023/09/23 06:06:38;;;;;;;;;;;;;;;;;;5052639;28;20449;-66
2023/09/23 06:09:05;;;;;;;;;;;;;;;;;;5054102;28;20023;-66
2023/09/23 06:11:32;;;;;;;;;;;;;;;;;;5051301;28;19932;-65
2023/09/23 06:13:59;;;;;;;;;;;;;;;;;;5053106;28;20050;-65
2023/09/23 06:16:26;;;;;;;;;;;;;;;;;;5053688;28;19925;-65
2023/09/23 06:18:53;;;;;;;;;;;;;;;;;;5052727;28;19925;-65
2023/09/23 06:21:20;;;;;;;;;;;;;;;;;;5048554;28;20240;-65
2023/09/23 06:23:47;;;;;;;;;;;;;;;;;;5053154;28;19979;-65
2023/09/23 06:26:15;;;;;;;;;;;;;;;;;;5050741;28;20399;-65
2023/09/23 06:28:42;;;;;;;;;;;;;;;;;;5039535;28;19947;-65
2023/09/23 06:31:09;;;;;;;;;;;;;;;;;;5048206;28;20384;-63
2023/09/23 06:33:36;;;;;;;;;;;;;;;;;;5050764;28;19970;-64
2023/09/23 06:36:04;;;;;;;;;;;;;;;;;;5054113;28;19925;-63
2023/09/23 06:38:31;;;;;;;;;;;;;;;;;;5052363;28;19925;-64
2023/09/23 06:40:58;;;;;;;;;;;;;;;;;;5049391;28;20410;-64
2023/09/23 06:43:25;;;;;;;;;;;;;;;;;;5050026;28;19925;-64
2023/09/23 06:45:52;;;;;;;;;;;;;;;;;;5052597;28;20342;-64
2023/09/23 06:48:19;;;;;;;;;;;;;;;;;;5049804;28;19998;-64
2023/09/23 06:50:46;;;;;;;;;;;;;;;;;;5051350;28;20384;-64
2023/09/23 06:53:13;;;;;;;;;;;;;;;;;;5047641;28;19924;-64
2023/09/23 06:55:40;;;;;;;;;;;;;;;;;;5046637;28;20029;-64
2023/09/23 06:58:08;;;;;;;;;;;;;;;;;;5043651;28;19927;-64
2023/09/23 07:00:35;;;;;;;;;;;;;;;;;;5044150;28;19933;-65
2023/09/23 07:03:03;;;;;;;;;;;;;;;;;;5037172;28;19929;-64
2023/09/23 07:05:30;;;;;;;;;;;;;;;;;;5049199;28;19933;-64
2023/09/23 07:07:57;;;;;;;;;;;;;;;;;;5046185;28;19932;-64
2023/09/23 07:10:24;;;;;;;;;;;;;;;;;;5045576;28;19970;-65
2023/09/23 07:12:51;;;;;;;;;;;;;;;;;;5048475;28;20920;-64
2023/09/23 07:15:18;;;;;;;;;;;;;;;;;;5049415;28;19960;-65
2023/09/23 07:17:45;;;;;;;;;;;;;;;;;;5050624;28;19971;-65
2023/09/23 07:20:12;;;;;;;;;;;;;;;;;;5041485;28;19928;-65
2023/09/23 07:22:39;;;;;;;;;;;;;;;;;;5046963;28;19925;-65
2023/09/23 07:25:06;;;;;;;;;;;;;;;;;;5050398;28;19924;-64
2023/09/23 07:27:33;;;;;;;;;;;;;;;;;;5053705;28;19925;-64
2023/09/23 07:30:00;;;;;;;;;;;;;;;;;;5050583;28;19976;-64
2023/09/23 07:32:27;;;;;;;;;;;;;;;;;;5050236;28;19924;-64
2023/09/23 07:34:54;;;;;;;;;;;;;;;;;;5047510;28;20392;-64
2023/09/23 07:37:21;;;;;;;;;;;;;;;;;;5046167;28;19975;-64
2023/09/23 07:39:48;;;;;;;;;;;;;;;;;;5044090;28;19925;-64
2023/09/23 07:42:15;;;;;;;;;;;;;;;;;;5051322;28;19971;-64
2023/09/23 07:44:42;;;;;;;;;;;;;;;;;;5045631;28;19991;-63
2023/09/23 07:47:09;;;;;;;;;;;;;;;;;;5047055;28;20007;-63
2023/09/23 07:49:36;;;;;;;;;;;;;;;;;;5047308;28;20334;-66
2023/09/23 07:52:03;;;;;;;;;;;;;;;;;;5045780;28;19933;-63
2023/09/23 07:54:30;;;;;;;;;;;;;;;;;;5048237;28;19936;-63
2023/09/23 07:56:58;;;;;;;;;;;;;;;;;;5039889;28;20012;-63
2023/09/23 07:59:25;;;;;;;;;;;;;;;;;;5047245;28;19952;-63
2023/09/23 08:01:52;;;;;;;;;;;;;;;;;;5043391;28;19925;-63
2023/09/23 08:04:19;;;;;;;;;;;;;;;;;;5043158;28;19940;-63
2023/09/23 08:06:46;;;;;;;;;;;;;;;;;;5040476;28;19925;-66
2023/09/23 08:09:13;;;;;;;;;;;;;;;;;;5046507;28;19929;-65
2023/09/23 08:11:40;;;;;;;;;;;;;;;;;;5046787;28;19952;-64
2023/09/23 08:14:07;;;;;;;;;;;;;;;;;;5048488;28;19925;-66
2023/09/23 08:16:34;;;;;;;;;;;;;;;;;;5047667;28;20398;-64
2023/09/23 08:19:01;;;;;;;;;;;;;;;;;;5050175;28;20031;-64
2023/09/23 08:21:29;;;;;;;;;;;;;;;;;;5041214;28;20304;-64
2023/09/23 08:23:57;;;;;;;;;;;;;;;;;;5044072;28;19925;-64
2023/09/23 08:26:24;;;;;;;;;;;;;;;;;;5051209;28;19933;-63
2023/09/23 08:28:51;;;;;;;;;;;;;;;;;;5050331;28;19982;-67
2023/09/23 08:31:18;;;;;;;;;;;;;;;;;;5050663;28;19973;-65
2023/09/23 08:33:45;;;;;;;;;;;;;;;;;;5046373;28;19936;-65
2023/09/23 08:36:12;;;;;;;;;;;;;;;;;;5047658;28;19932;-66
2023/09/23 08:38:39;;;;;;;;;;;;;;;;;;5048892;28;19971;-66
2023/09/23 08:41:07;;;;;;;;;;;;;;;;;;5050610;28;19929;-66
2023/09/23 08:43:37;;;;;;;;;;;;;;;;;;5050655;28;20031;-65
2023/09/23 08:46:05;;;;;;;;;;;;;;;;;;5045999;28;20382;-65
2023/09/23 08:48:32;;;;;;;;;;;;;;;;;;5049793;28;20400;-65
2023/09/23 08:50:59;;;;;;;;;;;;;;;;;;5045650;28;19943;-65
2023/09/23 08:53:26;;;;;;;;;;;;;;;;;;5046760;28;19925;-65
2023/09/23 08:55:53;;;;;;;;;;;;;;;;;;5048417;28;20283;-66
2023/09/23 08:58:20;;;;;;;;;;;;;;;;;;5044863;28;19950;-65
2023/09/23 09:00:48;;;;;;;;;;;;;;;;;;5045540;28;19925;-65
2023/09/23 09:03:15;;;;;;;;;;;;;;;;;;5045790;28;19939;-65
2023/09/23 09:05:43;;;;;;;;;;;;;;;;;;5046422;28;19941;-65
2023/09/23 09:08:10;;;;;;;;;;;;;;;;;;5048360;28;20442;-65
2023/09/23 09:10:37;;;;;;;;;;;;;;;;;;5040445;28;19925;-65
2023/09/23 09:13:04;;;;;;;;;;;;;;;;;;5046462;28;19928;-65
2023/09/23 09:15:31;;;;;;;;;;;;;;;;;;5046812;28;20391;-65
2023/09/23 09:17:59;;;;;;;;;;;;;;;;;;5043697;28;19925;-64
2023/09/23 09:20:26;;;;;;;;;;;;;;;;;;5042613;28;19931;-64
2023/09/23 09:22:53;;;;;;;;;;;;;;;;;;5050790;28;19924;-65
2023/09/23 09:25:20;;;;;;;;;;;;;;;;;;5047467;28;19925;-64
2023/09/23 09:27:47;;;;;;;;;;;;;;;;;;5052439;28;19940;-65
2023/09/23 09:30:14;;;;;;;;;;;;;;;;;;5048365;28;20354;-64
2023/09/23 09:32:41;;;;;;;;;;;;;;;;;;5044101;28;19925;-62
2023/09/23 09:35:09;;;;;;;;;;;;;;;;;;5050546;28;20448;-65
2023/09/23 09:37:37;;;;;;;;;;;;;;;;;;5048009;28;19932;-64
2023/09/23 09:40:11;;;;;;;;;;;;;;;;;;5051203;28;19925;-65
2023/09/23 09:42:38;;;;;;;;;;;;;;;;;;5038910;28;19929;-65
2023/09/23 09:45:05;;;;;;;;;;;;;;;;;;5052074;28;19932;-65
2023/09/23 09:47:32;;;;;;;;;;;;;;;;;;5044569;28;20019;-65
2023/09/23 09:49:59;;;;;;;;;;;;;;;;;;5053925;28;19970;-65
2023/09/23 09:52:27;;;;;;;;;;;;;;;;;;5039085;28;19931;-65
2023/09/23 09:54:54;;;;;;;;;;;;;;;;;;5051623;28;19929;-65
2023/09/23 09:57:22;;;;;;;;;;;;;;;;;;5050638;28;20576;-66
2023/09/23 09:59:50;;;;;;;;;;;;;;;;;;5049224;28;20307;-66
2023/09/23 10:02:17;;;;;;;;;;;;;;;;;;5053425;28;19925;-66
2023/09/23 10:04:44;;;;;;;;;;;;;;;;;;5046189;28;20445;-65
2023/09/23 10:07:11;;;;;;;;;;;;;;;;;;5044479;28;19998;-66
2023/09/23 10:09:39;;;;;;;;;;;;;;;;;;5052955;28;19978;-65
2023/09/23 10:12:06;;;;;;;;;;;;;;;;;;5054425;28;20460;-65
2023/09/23 10:14:33;;;;;;;;;;;;;;;;;;5052246;28;19970;-66
2023/09/23 10:17:01;;;;;;;;;;;;;;;;;;5053618;28;19929;-66
2023/09/23 10:19:28;;;;;;;;;;;;;;;;;;5050780;28;19932;-65
2023/09/23 10:21:55;;;;;;;;;;;;;;;;;;5054873;28;20330;-65
2023/09/23 10:24:23;;;;;;;;;;;;;;;;;;5053536;28;20010;-65
2023/09/23 10:26:51;;;;;;;;;;;;;;;;;;5054191;28;19932;-65
2023/09/23 10:29:18;;;;;;;;;;;;;;;;;;5050841;28;19925;-65
2023/09/23 10:31:46;;;;;;;;;;;;;;;;;;5051819;28;19931;-65
2023/09/23 10:34:14;;;;;;;;;;;;;;;;;;5046548;28;20372;-65
2023/09/23 10:36:41;;;;;;;;;;;;;;;;;;5053726;28;19929;-65
2023/09/23 10:39:08;;;;;;;;;;;;;;;;;;5052536;28;19970;-66
2023/09/23 10:41:36;;;;;;;;;;;;;;;;;;5046997;28;19925;-65
2023/09/23 10:44:03;;;;;;;;;;;;;;;;;;5049018;28;19925;-65
2023/09/23 10:46:30;;;;;;;;;;;;;;;;;;5054365;28;20285;-65
2023/09/23 10:48:59;;;;;;;;;;;;;;;;;;5048486;28;19925;-65
2023/09/23 10:51:26;;;;;;;;;;;;;;;;;;5053447;28;19971;-66
2023/09/23 10:53:54;;;;;;;;;;;;;;;;;;5052899;28;19924;-67
2023/09/23 10:56:21;;;;;;;;;;;;;;;;;;5053904;28;19929;-65
2023/09/23 10:58:48;;;;;;;;;;;;;;;;;;5047444;28;19972;-66
2023/09/23 11:01:15;;;;;;;;;;;;;;;;;;5037608;28;19928;-66
2023/09/23 11:03:42;;;;;;;;;;;;;;;;;;5050609;28;19928;-66
2023/09/23 11:06:09;;;;;;;;;;;;;;;;;;5053841;28;19924;-66
2023/09/23 11:08:37;;;;;;;;;;;;;;;;;;5053794;28;19929;-66
2023/09/23 11:11:03;;;;;;;;;;;;;;;;;;5053468;28;20028;-66
2023/09/23 11:13:31;;;;;;;;;;;;;;;;;;5052264;28;20387;-66
2023/09/23 11:15:58;;;;;;;;;;;;;;;;;;5048541;28;20378;-66
2023/09/23 11:18:25;;;;;;;;;;;;;;;;;;5043822;28;19979;-66
2023/09/23 11:20:52;;;;;;;;;;;;;;;;;;5050499;28;19964;-66
2023/09/23 11:23:19;;;;;;;;;;;;;;;;;;5052493;28;20383;-66
2023/09/23 11:25:46;;;;;;;;;;;;;;;;;;5048610;28;19960;-65
2023/09/23 11:28:13;;;;;;;;;;;;;;;;;;5051667;28;19925;-65
2023/09/23 11:30:40;;;;;;;;;;;;;;;;;;5053239;28;19924;-66
2023/09/23 11:33:07;;;;;;;;;;;;;;;;;;5049834;28;19928;-66
2023/09/23 11:35:34;;;;;;;;;;;;;;;;;;5045875;28;19924;-66
2023/09/23 11:38:01;;;;;;;;;;;;;;;;;;5048715;28;19925;-65
2023/09/23 11:40:28;;;;;;;;;;;;;;;;;;5053704;28;19929;-66
2023/09/23 11:42:55;;;;;;;;;;;;;;;;;;5051539;28;19925;-66
2023/09/23 11:45:23;;;;;;;;;;;;;;;;;;5051707;28;19975;-66
2023/09/23 11:47:51;;;;;;;;;;;;;;;;;;5048991;28;19925;-66
2023/09/23 11:50:18;;;;;;;;;;;;;;;;;;5051660;28;19925;-66
2023/09/23 11:52:45;;;;;;;;;;;;;;;;;;5051096;28;19925;-66
2023/09/23 11:55:12;;;;;;;;;;;;;;;;;;5050765;28;19933;-66
2023/09/23 11:57:39;;;;;;;;;;;;;;;;;;5051542;28;19932;-66
2023/09/23 12:00:09;;;;;;;;;;;;;;;;;;5053095;28;20340;-66
2023/09/23 12:02:36;;;;;;;;;;;;;;;;;;5046782;28;19925;-65
2023/09/23 12:05:06;;;;;;;;;;;;;;;;;;5052555;28;19928;-65
2023/09/23 12:07:33;;;;;;;;;;;;;;;;;;5038723;28;19925;-65
2023/09/23 12:10:00;;;;;;;;;;;;;;;;;;5042977;28;19968;-65
2023/09/23 12:12:28;;;;;;;;;;;;;;;;;;5043092;28;19929;-65
2023/09/23 12:14:55;;;;;;;;;;;;;;;;;;5052238;28;20027;-66
2023/09/23 12:17:22;;;;;;;;;;;;;;;;;;5050679;28;19925;-66
2023/09/23 12:19:49;;;;;;;;;;;;;;;;;;5051784;28;19925;-65
2023/09/23 12:22:16;;;;;;;;;;;;;;;;;;5052031;28;20002;-64
2023/09/23 12:24:43;;;;;;;;;;;;;;;;;;5040660;28;19964;-64
2023/09/23 12:27:10;;;;;;;;;;;;;;;;;;5039959;28;20442;-64
2023/09/23 12:29:37;;;;;;;;;;;;;;;;;;5050884;28;19925;-65
2023/09/23 12:32:04;;;;;;;;;;;;;;;;;;5049138;28;19947;-64
2023/09/23 12:34:31;;;;;;;;;;;;;;;;;;5050852;28;19932;-65
2023/09/23 12:36:58;;;;;;;;;;;;;;;;;;5052278;28;19948;-65
2023/09/23 12:39:25;;;;;;;;;;;;;;;;;;5052457;28;19994;-65
2023/09/23 12:41:52;;;;;;;;;;;;;;;;;;5051609;28;19971;-65
2023/09/23 12:44:19;;;;;;;;;;;;;;;;;;5052167;28;19925;-68
2023/09/23 12:46:46;;;;;;;;;;;;;;;;;;5048355;28;19924;-65
2023/09/23 12:49:13;;;;;;;;;;;;;;;;;;5044678;28;19925;-65
2023/09/23 12:51:41;;;;;;;;;;;;;;;;;;5048215;28;19925;-64
2023/09/23 12:54:08;;;;;;;;;;;;;;;;;;5042918;28;19925;-65
2023/09/23 12:56:35;;;;;;;;;;;;;;;;;;5055764;28;20399;-65
2023/09/23 12:59:02;;;;;;;;;;;;;;;;;;5052285;28;19944;-65
2023/09/23 13:01:31;;;;;;;;;;;;;;;;;;5053686;28;20347;-65
2023/09/23 13:03:58;;;;;;;;;;;;;;;;;;5054358;28;19925;-65
2023/09/23 13:06:25;;;;;;;;;;;;;;;;;;5040359;28;20442;-65
2023/09/23 13:08:52;;;;;;;;;;;;;;;;;;5040031;28;19979;-65
2023/09/23 13:11:21;;;;;;;;;;;;;;;;;;5052627;28;19932;-66
2023/09/23 13:13:48;;;;;;;;;;;;;;;;;;5052888;28;19931;-65
2023/09/23 13:16:15;;;;;;;;;;;;;;;;;;5052488;28;19986;-65
2023/09/23 13:18:42;;;;;;;;;;;;;;;;;;5054767;28;19973;-64
2023/09/23 13:21:10;;;;;;;;;;;;;;;;;;5041637;28;19960;-64
2023/09/23 13:23:38;;;;;;;;;;;;;;;;;;5051663;28;20273;-64
2023/09/23 13:26:05;;;;;;;;;;;;;;;;;;5053821;28;20303;-64
2023/09/23 13:28:32;;;;;;;;;;;;;;;;;;5056305;28;19931;-64
2023/09/23 13:31:00;;;;;;;;;;;;;;;;;;5053238;28;20243;-71
2023/09/23 13:33:27;;;;;;;;;;;;;;;;;;5051599;28;20622;-71
2023/09/23 13:35:54;;;;;;;;;;;;;;;;;;5039502;28;19925;-71
2023/09/23 13:38:21;;;;;;;;;;;;;;;;;;5038573;28;19925;-71
2023/09/23 13:40:48;;;;;;;;;;;;;;;;;;5047144;28;19948;-71
2023/09/23 13:43:15;;;;;;;;;;;;;;;;;;5050235;28;19929;-72
2023/09/23 13:45:43;;;;;;;;;;;;;;;;;;5048271;28;19925;-71
2023/09/23 13:48:11;;;;;;;;;;;;;;;;;;5055029;28;20383;-69
2023/09/23 13:50:38;;;;;;;;;;;;;;;;;;5048767;28;19933;-70
2023/09/23 13:53:05;;;;;;;;;;;;;;;;;;5049850;28;19925;-71
2023/09/23 13:55:32;;;;;;;;;;;;;;;;;;5044462;28;20031;-72
2023/09/23 13:57:59;;;;;;;;;;;;;;;;;;5042680;28;20063;-71
2023/09/23 14:00:28;;;;;;;;;;;;;;;;;;5048407;28;20012;-71
2023/09/23 14:02:56;;;;;;;;;;;;;;;;;;5043903;28;20015;-72
2023/09/23 14:05:23;;;;;;;;;;;;;;;;;;5042038;28;19944;-71
2023/09/23 14:07:50;;;;;;;;;;;;;;;;;;5049932;28;20372;-72
2023/09/23 14:10:17;;;;;;;;;;;;;;;;;;5050839;28;19936;-71
2023/09/23 14:12:44;;;;;;;;;;;;;;;;;;5050314;28;19925;-72
2023/09/23 14:15:11;;;;;;;;;;;;;;;;;;5049867;28;19935;-71
2023/09/23 14:17:38;;;;;;;;;;;;;;;;;;5053160;28;20377;-74
2023/09/23 14:20:09;;;;;;;;;;;;;;;;;;5052777;28;19924;-73
2023/09/23 14:22:36;;;;;;;;;;;;;;;;;;5056010;28;20361;-73
2023/09/23 14:25:04;;;;;;;;;;;;;;;;;;5056249;28;20013;-73
2023/09/23 14:27:31;;;;;;;;;;;;;;;;;;5049405;28;20024;-72
2023/09/23 14:29:58;;;;;;;;;;;;;;;;;;5051300;28;19986;-73
2023/09/23 14:32:25;;;;;;;;;;;;;;;;;;5052034;28;19994;-73
2023/09/23 14:34:52;;;;;;;;;;;;;;;;;;5052336;28;19932;-71
2023/09/23 14:37:19;;;;;;;;;;;;;;;;;;5054047;28;19924;-72
2023/09/23 14:39:47;;;;;;;;;;;;;;;;;;5051843;28;19928;-72
2023/09/23 14:42:14;;;;;;;;;;;;;;;;;;5052692;28;19928;-72
2023/09/23 14:44:42;;;;;;;;;;;;;;;;;;5047104;28;19929;-69
2023/09/23 14:47:09;;;;;;;;;;;;;;;;;;5044982;28;19970;-72
2023/09/23 14:49:36;;;;;;;;;;;;;;;;;;5043461;28;20295;-72
2023/09/23 14:52:03;;;;;;;;;;;;;;;;;;5051348;28;19925;-73
2023/09/23 14:54:30;;;;;;;;;;;;;;;;;;5048649;28;19925;-72
2023/09/23 14:56:57;;;;;;;;;;;;;;;;;;5049659;28;20379;-72
2023/09/23 14:59:25;;;;;;;;;;;;;;;;;;5046334;28;19937;-72
2023/09/23 15:01:52;;;;;;;;;;;;;;;;;;5048086;28;19936;-71
2023/09/23 15:04:19;;;;;;;;;;;;;;;;;;5051804;28;19932;-72
2023/09/23 15:06:46;;;;;;;;;;;;;;;;;;5052395;28;19925;-72
2023/09/23 15:09:14;;;;;;;;;;;;;;;;;;5053255;28;19925;-72
2023/09/23 15:11:41;;;;;;;;;;;;;;;;;;5050086;28;19924;-72
2023/09/23 15:14:08;;;;;;;;;;;;;;;;;;5052005;28;19979;-72
2023/09/23 15:16:35;;;;;;;;;;;;;;;;;;5051812;28;20446;-72
2023/09/23 15:19:02;;;;;;;;;;;;;;;;;;5051902;28;19940;-73
2023/09/23 15:21:29;;;;;;;;;;;;;;;;;;5051520;28;19925;-72
2023/09/23 15:23:58;;;;;;;;;;;;;;;;;;5051163;28;19925;-73
2023/09/23 15:26:25;;;;;;;;;;;;;;;;;;5047587;28;20025;-73
2023/09/23 15:28:52;;;;;;;;;;;;;;;;;;5046988;28;19924;-74
2023/09/23 15:31:21;;;;;;;;;;;;;;;;;;5046404;28;19956;-72
2023/09/23 15:33:48;;;;;;;;;;;;;;;;;;5051506;28;19924;-73
2023/09/23 15:36:18;;;;;;;;;;;;;;;;;;5052510;28;19932;-73
2023/09/23 15:38:45;;;;;;;;;;;;;;;;;;5049417;28;19928;-72
2023/09/23 15:41:12;;;;;;;;;;;;;;;;;;5045891;28;19967;-72
2023/09/23 15:43:39;;;;;;;;;;;;;;;;;;5041536;28;19948;-72
2023/09/23 15:46:06;;;;;;;;;;;;;;;;;;5041163;28;19925;-72
2023/09/23 15:48:33;;;;;;;;;;;;;;;;;;5045671;28;20466;-72
2023/09/23 15:51:01;;;;;;;;;;;;;;;;;;5040257;28;19925;-74
2023/09/23 15:53:28;;;;;;;;;;;;;;;;;;5048654;28;19925;-73
2023/09/23 15:55:55;;;;;;;;;;;;;;;;;;5043199;28;19986;-75
2023/09/23 15:58:24;;;;;;;;;;;;;;;;;;5048091;28;20021;-74
2023/09/23 16:00:51;;;;;;;;;;;;;;;;;;5040351;28;19936;-74
2023/09/23 16:03:18;;;;;;;;;;;;;;;;;;5050397;28;19932;-74
2023/09/23 16:05:45;;;;;;;;;;;;;;;;;;5043397;28;19944;-74
2023/09/23 16:08:12;;;;;;;;;;;;;;;;;;5048018;28;19925;-74
2023/09/23 16:10:39;;;;;;;;;;;;;;;;;;5049406;28;20012;-74
2023/09/23 16:13:06;;;;;;;;;;;;;;;;;;5050395;28;20521;-75
2023/09/23 16:15:33;;;;;;;;;;;;;;;;;;5050507;28;19925;-74
2023/09/23 16:18:00;;;;;;;;;;;;;;;;;;5040457;28;20110;-74
2023/09/23 16:20:27;;;;;;;;;;;;;;;;;;5041118;28;19986;-74
2023/09/23 16:22:54;;;;;;;;;;;;;;;;;;5042128;28;19986;-74
2023/09/23 16:25:21;;;;;;;;;;;;;;;;;;5051395;28;19978;-74
2023/09/23 16:27:48;;;;;;;;;;;;;;;;;;5048505;28;19947;-73
2023/09/23 16:30:15;;;;;;;;;;;;;;;;;;5046319;28;19971;-73
2023/09/23 16:32:42;;;;;;;;;;;;;;;;;;5042450;28;19939;-74
2023/09/23 16:35:10;;;;;;;;;;;;;;;;;;5048120;28;19925;-74
2023/09/23 16:37:37;;;;;;;;;;;;;;;;;;5048797;28;20287;-74
2023/09/23 16:40:07;;;;;;;;;;;;;;;;;;5045587;28;19935;-74
2023/09/23 16:42:34;;;;;;;;;;;;;;;;;;5047859;28;20204;-72
2023/09/23 16:45:01;;;;;;;;;;;;;;;;;;5046590;28;20513;-72
2023/09/23 16:47:28;;;;;;;;;;;;;;;;;;5051266;28;20028;-72